sensor_id;sensor_type;location;lat;lon;timestamp;temperature;humidity
10306;DHT22;5198;52.382;9.020;2022-10-30T00:02:51;17.40;99.90
10306;DHT22;5198;52.382;9.020;2022-10-30T00:06:55;17.30;99.90
10306;DHT22;5198;52.382;9.020;2022-10-30T00:11:03;17.40;99.90
10306;DHT22;5198;52.382;9.020;2022-10-30T00:15:08;17.40;99.90
10306;DHT22;5198;52.382;9.020;2022-10-30T00:19:11;17.40;99.90
10306;DHT22;5198;52.382;9.020;2022-10-30T00:23:14;17.40;99.90
10306;DHT22;5198;52.382;9.020;2022-10-30T00:27:17;17.40;99.90
10306;DHT22;5198;52.382;9.020;2022-10-30T00:31:21;17.40;99.90
10306;DHT22;5198;52.382;9.020;2022-10-30T00:35:38;17.40;99.90
10306;DHT22;5198;52.382;9.020;2022-10-30T00:39:41;17.40;99.90
10306;DHT22;5198;52.382;9.020;2022-10-30T00:43:46;17.40;99.90
10306;DHT22;5198;52.382;9.020;2022-10-30T00:47:51;17.40;99.90
10306;DHT22;5198;52.382;9.020;2022-10-30T00:51:55;17.30;99.90
10306;DHT22;5198;52.382;9.020;2022-10-30T00:55:59;17.40;99.90
10306;DHT22;5198;52.382;9.020;2022-10-30T01:00:04;17.30;99.90
10306;DHT22;5198;52.382;9.020;2022-10-30T01:04:10;17.30;99.90
10306;DHT22;5198;52.382;9.020;2022-10-30T01:08:14;17.30;99.90
10306;DHT22;5198;52.382;9.020;2022-10-30T01:12:17;17.30;99.90
10306;DHT22;5198;52.382;9.020;2022-10-30T01:16:37;17.30;99.90
10306;DHT22;5198;52.382;9.020;2022-10-30T01:20:57;17.30;99.90
10306;DHT22;5198;52.382;9.020;2022-10-30T01:25:09;17.30;99.90
10306;DHT22;5198;52.382;9.020;2022-10-30T01:29:19;17.30;99.90
10306;DHT22;5198;52.382;9.020;2022-10-30T01:33:25;17.30;99.90
10306;DHT22;5198;52.382;9.020;2022-10-30T01:37:33;17.20;99.90
10306;DHT22;5198;52.382;9.020;2022-10-30T01:41:38;17.20;99.90
10306;DHT22;5198;52.382;9.020;2022-10-30T01:45:48;17.30;99.90
10306;DHT22;5198;52.382;9.020;2022-10-30T01:50:02;17.30;99.90
10306;DHT22;5198;52.382;9.020;2022-10-30T01:54:10;17.30;99.90
10306;DHT22;5198;52.382;9.020;2022-10-30T01:58:16;17.20;99.90
10306;DHT22;5198;52.382;9.020;2022-10-30T02:02:21;17.20;99.90
10306;DHT22;5198;52.382;9.020;2022-10-30T02:06:24;17.20;99.90
10306;DHT22;5198;52.382;9.020;2022-10-30T02:10:29;17.20;99.90
10306;DHT22;5198;52.382;9.020;2022-10-30T02:14:34;17.20;99.90
10306;DHT22;5198;52.382;9.020;2022-10-30T02:18:38;17.10;99.90
10306;DHT22;5198;52.382;9.020;2022-10-30T02:22:42;17.20;99.90
10306;DHT22;5198;52.382;9.020;2022-10-30T02:26:45;17.10;99.90
10306;DHT22;5198;52.382;9.020;2022-10-30T02:30:48;17.10;99.90
10306;DHT22;5198;52.382;9.020;2022-10-30T02:34:51;17.10;99.90
10306;DHT22;5198;52.382;9.020;2022-10-30T02:38:55;17.10;99.90
10306;DHT22;5198;52.382;9.020;2022-10-30T02:42:58;17.10;99.90
10306;DHT22;5198;52.382;9.020;2022-10-30T02:47:01;17.10;99.90
10306;DHT22;5198;52.382;9.020;2022-10-30T02:51:04;17.10;99.90
10306;DHT22;5198;52.382;9.020;2022-10-30T02:55:08;17.10;99.90
10306;DHT22;5198;52.382;9.020;2022-10-30T02:59:11;17.10;99.90
10306;DHT22;5198;52.382;9.020;2022-10-30T03:03:14;17.10;99.90
10306;DHT22;5198;52.382;9.020;2022-10-30T03:07:23;17.00;99.90
10306;DHT22;5198;52.382;9.020;2022-10-30T03:11:27;17.00;99.90
10306;DHT22;5198;52.382;9.020;2022-10-30T03:15:30;17.00;99.90
10306;DHT22;5198;52.382;9.020;2022-10-30T03:19:33;17.00;99.90
10306;DHT22;5198;52.382;9.020;2022-10-30T03:23:36;16.90;99.90
10306;DHT22;5198;52.382;9.020;2022-10-30T03:27:41;16.90;99.90
10306;DHT22;5198;52.382;9.020;2022-10-30T03:31:44;16.90;99.90
10306;DHT22;5198;52.382;9.020;2022-10-30T03:35:47;16.90;99.90
10306;DHT22;5198;52.382;9.020;2022-10-30T03:39:50;16.90;99.90
10306;DHT22;5198;52.382;9.020;2022-10-30T03:43:55;16.90;99.90
10306;DHT22;5198;52.382;9.020;2022-10-30T03:47:58;16.90;99.90
10306;DHT22;5198;52.382;9.020;2022-10-30T03:52:01;16.90;99.90
10306;DHT22;5198;52.382;9.020;2022-10-30T03:56:04;16.90;99.90
10306;DHT22;5198;52.382;9.020;2022-10-30T04:00:10;16.90;99.90
10306;DHT22;5198;52.382;9.020;2022-10-30T04:04:13;16.90;99.90
10306;DHT22;5198;52.382;9.020;2022-10-30T04:08:16;16.90;99.90
10306;DHT22;5198;52.382;9.020;2022-10-30T04:12:19;16.90;99.90
10306;DHT22;5198;52.382;9.020;2022-10-30T04:16:23;16.90;99.90
10306;DHT22;5198;52.382;9.020;2022-10-30T04:20:26;16.90;99.90
10306;DHT22;5198;52.382;9.020;2022-10-30T04:24:29;16.90;99.90
10306;DHT22;5198;52.382;9.020;2022-10-30T04:28:32;16.90;99.90
10306;DHT22;5198;52.382;9.020;2022-10-30T04:32:36;16.90;99.90
10306;DHT22;5198;52.382;9.020;2022-10-30T04:36:46;16.90;99.90
10306;DHT22;5198;52.382;9.020;2022-10-30T04:40:49;16.90;99.90
10306;DHT22;5198;52.382;9.020;2022-10-30T04:44:52;16.90;99.90
10306;DHT22;5198;52.382;9.020;2022-10-30T04:48:56;16.80;99.90
10306;DHT22;5198;52.382;9.020;2022-10-30T04:53:00;16.80;99.90
10306;DHT22;5198;52.382;9.020;2022-10-30T04:57:03;16.80;99.90
10306;DHT22;5198;52.382;9.020;2022-10-30T05:01:06;16.80;99.90
10306;DHT22;5198;52.382;9.020;2022-10-30T05:05:10;16.80;99.90
10306;DHT22;5198;52.382;9.020;2022-10-30T05:09:13;16.80;99.90
10306;DHT22;5198;52.382;9.020;2022-10-30T05:13:16;16.80;99.90
10306;DHT22;5198;52.382;9.020;2022-10-30T05:17:19;16.70;99.90
10306;DHT22;5198;52.382;9.020;2022-10-30T05:21:23;16.70;99.90
10306;DHT22;5198;52.382;9.020;2022-10-30T05:25:26;16.70;99.90
10306;DHT22;5198;52.382;9.020;2022-10-30T05:29:29;16.60;99.90
10306;DHT22;5198;52.382;9.020;2022-10-30T05:33:32;16.60;99.90
10306;DHT22;5198;52.382;9.020;2022-10-30T05:37:36;16.60;99.90
10306;DHT22;5198;52.382;9.020;2022-10-30T05:41:39;16.50;99.90
10306;DHT22;5198;52.382;9.020;2022-10-30T05:45:42;16.50;99.90
10306;DHT22;5198;52.382;9.020;2022-10-30T05:49:45;16.50;99.90
10306;DHT22;5198;52.382;9.020;2022-10-30T05:53:49;16.40;99.90
10306;DHT22;5198;52.382;9.020;2022-10-30T05:57:54;16.40;99.90
10306;DHT22;5198;52.382;9.020;2022-10-30T06:01:57;16.40;99.90
10306;DHT22;5198;52.382;9.020;2022-10-30T06:06:00;16.30;99.90
10306;DHT22;5198;52.382;9.020;2022-10-30T06:10:05;16.30;99.90
10306;DHT22;5198;52.382;9.020;2022-10-30T06:14:08;16.20;99.90
10306;DHT22;5198;52.382;9.020;2022-10-30T06:18:11;16.10;99.90
10306;DHT22;5198;52.382;9.020;2022-10-30T06:22:14;16.10;99.90
10306;DHT22;5198;52.382;9.020;2022-10-30T06:26:18;16.10;99.90
10306;DHT22;5198;52.382;9.020;2022-10-30T06:30:21;16.00;99.90
10306;DHT22;5198;52.382;9.020;2022-10-30T06:34:24;16.00;99.90
10306;DHT22;5198;52.382;9.020;2022-10-30T06:38:27;15.90;99.90
10306;DHT22;5198;52.382;9.020;2022-10-30T06:42:32;15.90;99.90
10306;DHT22;5198;52.382;9.020;2022-10-30T06:46:35;15.90;99.90
10306;DHT22;5198;52.382;9.020;2022-10-30T06:50:37;15.80;99.90
10306;DHT22;5198;52.382;9.020;2022-10-30T06:54:40;15.80;99.90
10306;DHT22;5198;52.382;9.020;2022-10-30T06:58:45;15.80;99.90
10306;DHT22;5198;52.382;9.020;2022-10-30T07:02:54;15.70;99.90
10306;DHT22;5198;52.382;9.020;2022-10-30T07:06:58;15.70;99.90
10306;DHT22;5198;52.382;9.020;2022-10-30T07:11:01;15.70;99.90
10306;DHT22;5198;52.382;9.020;2022-10-30T07:15:06;15.70;99.90
10306;DHT22;5198;52.382;9.020;2022-10-30T07:19:09;15.80;99.90
10306;DHT22;5198;52.382;9.020;2022-10-30T07:23:12;15.80;99.90
10306;DHT22;5198;52.382;9.020;2022-10-30T07:27:14;15.80;99.90
10306;DHT22;5198;52.382;9.020;2022-10-30T07:31:19;15.80;99.90
10306;DHT22;5198;52.382;9.020;2022-10-30T07:35:42;15.80;99.90
10306;DHT22;5198;52.382;9.020;2022-10-30T07:39:44;15.90;99.90
10306;DHT22;5198;52.382;9.020;2022-10-30T07:43:47;15.90;99.90
10306;DHT22;5198;52.382;9.020;2022-10-30T07:47:52;16.00;99.90
10306;DHT22;5198;52.382;9.020;2022-10-30T07:51:55;16.00;99.90
10306;DHT22;5198;52.382;9.020;2022-10-30T07:55:58;16.10;99.90
10306;DHT22;5198;52.382;9.020;2022-10-30T08:00:01;16.20;99.90
10306;DHT22;5198;52.382;9.020;2022-10-30T08:04:06;16.30;99.90
10306;DHT22;5198;52.382;9.020;2022-10-30T08:08:11;16.40;99.90
10306;DHT22;5198;52.382;9.020;2022-10-30T08:12:14;16.60;99.90
10306;DHT22;5198;52.382;9.020;2022-10-30T08:16:17;17.00;99.90
10306;DHT22;5198;52.382;9.020;2022-10-30T08:20:22;17.70;99.90
10306;DHT22;5198;52.382;9.020;2022-10-30T08:24:25;18.50;99.90
10306;DHT22;5198;52.382;9.020;2022-10-30T08:28:28;19.40;99.90
10306;DHT22;5198;52.382;9.020;2022-10-30T08:32:33;20.30;99.90
10306;DHT22;5198;52.382;9.020;2022-10-30T08:36:37;21.20;99.90
10306;DHT22;5198;52.382;9.020;2022-10-30T08:40:45;22.00;99.90
10306;DHT22;5198;52.382;9.020;2022-10-30T08:44:48;22.60;99.90
10306;DHT22;5198;52.382;9.020;2022-10-30T08:48:51;23.10;99.90
10306;DHT22;5198;52.382;9.020;2022-10-30T08:52:59;23.70;99.90
10306;DHT22;5198;52.382;9.020;2022-10-30T08:57:05;24.30;99.90
10306;DHT22;5198;52.382;9.020;2022-10-30T09:01:07;24.70;99.90
10306;DHT22;5198;52.382;9.020;2022-10-30T09:05:10;25.10;99.90
10306;DHT22;5198;52.382;9.020;2022-10-30T09:09:15;25.40;99.90
10306;DHT22;5198;52.382;9.020;2022-10-30T09:13:18;25.90;99.90
10306;DHT22;5198;52.382;9.020;2022-10-30T09:17:20;26.30;99.90
10306;DHT22;5198;52.382;9.020;2022-10-30T09:21:23;26.60;99.90
10306;DHT22;5198;52.382;9.020;2022-10-30T09:25:28;26.90;99.90
10306;DHT22;5198;52.382;9.020;2022-10-30T09:29:31;27.30;99.90
10306;DHT22;5198;52.382;9.020;2022-10-30T09:33:36;27.70;99.90
10306;DHT22;5198;52.382;9.020;2022-10-30T09:37:38;28.10;99.90
10306;DHT22;5198;52.382;9.020;2022-10-30T09:41:50;28.40;99.90
10306;DHT22;5198;52.382;9.020;2022-10-30T09:50:23;29.00;99.90
10306;DHT22;5198;52.382;9.020;2022-10-30T09:54:30;29.30;99.90
10306;DHT22;5198;52.382;9.020;2022-10-30T09:58:43;29.80;99.90
10306;DHT22;5198;52.382;9.020;2022-10-30T10:02:52;30.00;99.90
10306;DHT22;5198;52.382;9.020;2022-10-30T10:06:59;30.20;99.90
10306;DHT22;5198;52.382;9.020;2022-10-30T10:15:10;30.60;99.90
10306;DHT22;5198;52.382;9.020;2022-10-30T10:19:17;31.00;99.90
10306;DHT22;5198;52.382;9.020;2022-10-30T10:23:25;31.20;99.90
10306;DHT22;5198;52.382;9.020;2022-10-30T10:27:31;31.40;99.90
10306;DHT22;5198;52.382;9.020;2022-10-30T10:31:42;31.60;99.90
10306;DHT22;5198;52.382;9.020;2022-10-30T10:35:55;31.70;99.90
10306;DHT22;5198;52.382;9.020;2022-10-30T10:40:11;31.80;99.90
10306;DHT22;5198;52.382;9.020;2022-10-30T10:44:21;31.80;99.90
10306;DHT22;5198;52.382;9.020;2022-10-30T10:48:35;31.90;99.90
10306;DHT22;5198;52.382;9.020;2022-10-30T10:52:45;32.10;99.90
10306;DHT22;5198;52.382;9.020;2022-10-30T10:56:49;32.10;99.90
10306;DHT22;5198;52.382;9.020;2022-10-30T11:00:52;32.30;99.90
10306;DHT22;5198;52.382;9.020;2022-10-30T11:05:00;32.50;99.90
10306;DHT22;5198;52.382;9.020;2022-10-30T11:09:11;32.60;99.90
10306;DHT22;5198;52.382;9.020;2022-10-30T11:13:15;32.80;99.90
10306;DHT22;5198;52.382;9.020;2022-10-30T11:17:19;32.90;99.90
10306;DHT22;5198;52.382;9.020;2022-10-30T11:21:25;33.20;99.90
10306;DHT22;5198;52.382;9.020;2022-10-30T11:25:32;33.50;99.90
10306;DHT22;5198;52.382;9.020;2022-10-30T11:29:35;33.80;99.90
10306;DHT22;5198;52.382;9.020;2022-10-30T11:33:38;33.90;99.90
10306;DHT22;5198;52.382;9.020;2022-10-30T11:37:43;34.10;99.90
10306;DHT22;5198;52.382;9.020;2022-10-30T11:41:47;34.20;99.90
10306;DHT22;5198;52.382;9.020;2022-10-30T11:45:56;34.20;99.90
10306;DHT22;5198;52.382;9.020;2022-10-30T11:49:59;34.30;99.90
10306;DHT22;5198;52.382;9.020;2022-10-30T11:54:04;34.50;99.90
10306;DHT22;5198;52.382;9.020;2022-10-30T11:58:19;34.50;98.10
10306;DHT22;5198;52.382;9.020;2022-10-30T12:02:25;34.50;99.90
10306;DHT22;5198;52.382;9.020;2022-10-30T12:06:31;34.40;99.10
10306;DHT22;5198;52.382;9.020;2022-10-30T12:10:38;34.50;96.10
10306;DHT22;5198;52.382;9.020;2022-10-30T12:14:43;34.50;96.40
10306;DHT22;5198;52.382;9.020;2022-10-30T12:18:50;34.40;99.60
10306;DHT22;5198;52.382;9.020;2022-10-30T12:22:54;34.40;95.70
10306;DHT22;5198;52.382;9.020;2022-10-30T12:27:01;34.40;96.60
10306;DHT22;5198;52.382;9.020;2022-10-30T12:31:07;34.30;94.70
10306;DHT22;5198;52.382;9.020;2022-10-30T12:35:16;34.10;98.40
10306;DHT22;5198;52.382;9.020;2022-10-30T12:39:24;33.50;94.70
10306;DHT22;5198;52.382;9.020;2022-10-30T12:43:32;32.80;93.70
10306;DHT22;5198;52.382;9.020;2022-10-30T12:47:38;32.10;94.80
10306;DHT22;5198;52.382;9.020;2022-10-30T12:51:45;31.50;97.80
10306;DHT22;5198;52.382;9.020;2022-10-30T12:55:51;31.00;97.40
10306;DHT22;5198;52.382;9.020;2022-10-30T12:59:58;30.50;98.60
10306;DHT22;5198;52.382;9.020;2022-10-30T13:04:06;30.00;98.90
10306;DHT22;5198;52.382;9.020;2022-10-30T13:08:11;29.60;99.20
10306;DHT22;5198;52.382;9.020;2022-10-30T13:12:17;29.20;99.50
10306;DHT22;5198;52.382;9.020;2022-10-30T13:16:23;28.90;99.00
10306;DHT22;5198;52.382;9.020;2022-10-30T13:20:27;28.60;99.40
10306;DHT22;5198;52.382;9.020;2022-10-30T13:24:35;28.30;99.20
10306;DHT22;5198;52.382;9.020;2022-10-30T13:28:42;28.10;99.60
10306;DHT22;5198;52.382;9.020;2022-10-30T13:32:56;27.80;99.60
10306;DHT22;5198;52.382;9.020;2022-10-30T13:37:03;27.60;99.90
10306;DHT22;5198;52.382;9.020;2022-10-30T13:41:08;27.40;99.90
10306;DHT22;5198;52.382;9.020;2022-10-30T13:45:25;27.10;99.90
10306;DHT22;5198;52.382;9.020;2022-10-30T13:49:41;26.90;99.90
10306;DHT22;5198;52.382;9.020;2022-10-30T13:53:52;26.70;99.90
10306;DHT22;5198;52.382;9.020;2022-10-30T13:57:59;26.50;99.70
10306;DHT22;5198;52.382;9.020;2022-10-30T14:02:04;26.40;99.90
10306;DHT22;5198;52.382;9.020;2022-10-30T14:06:14;26.20;99.90
10306;DHT22;5198;52.382;9.020;2022-10-30T14:10:21;26.10;99.90
10306;DHT22;5198;52.382;9.020;2022-10-30T14:14:29;26.00;99.90
10306;DHT22;5198;52.382;9.020;2022-10-30T14:23:07;25.70;99.90
10306;DHT22;5198;52.382;9.020;2022-10-30T14:27:13;25.60;99.90
10306;DHT22;5198;52.382;9.020;2022-10-30T14:31:31;25.50;99.90
10306;DHT22;5198;52.382;9.020;2022-10-30T14:35:36;25.50;99.90
10306;DHT22;5198;52.382;9.020;2022-10-30T14:39:41;25.30;99.90
10306;DHT22;5198;52.382;9.020;2022-10-30T14:43:46;25.20;99.90
10306;DHT22;5198;52.382;9.020;2022-10-30T14:47:51;25.10;99.90
10306;DHT22;5198;52.382;9.020;2022-10-30T14:51:58;25.00;99.90
10306;DHT22;5198;52.382;9.020;2022-10-30T14:56:09;24.90;99.90
10306;DHT22;5198;52.382;9.020;2022-10-30T15:00:37;24.80;99.90
10306;DHT22;5198;52.382;9.020;2022-10-30T15:04:43;24.60;99.90
10306;DHT22;5198;52.382;9.020;2022-10-30T15:09:09;24.40;99.90
10306;DHT22;5198;52.382;9.020;2022-10-30T15:13:16;24.30;99.90
10306;DHT22;5198;52.382;9.020;2022-10-30T15:17:22;24.10;99.90
10306;DHT22;5198;52.382;9.020;2022-10-30T15:21:27;23.90;99.90
10306;DHT22;5198;52.382;9.020;2022-10-30T15:25:34;23.80;99.90
10306;DHT22;5198;52.382;9.020;2022-10-30T15:29:39;23.60;99.90
10306;DHT22;5198;52.382;9.020;2022-10-30T15:33:45;23.50;99.90
10306;DHT22;5198;52.382;9.020;2022-10-30T15:37:57;23.30;99.90
10306;DHT22;5198;52.382;9.020;2022-10-30T15:42:00;23.10;99.90
10306;DHT22;5198;52.382;9.020;2022-10-30T15:46:13;22.90;99.90
10306;DHT22;5198;52.382;9.020;2022-10-30T15:50:16;22.80;99.90
10306;DHT22;5198;52.382;9.020;2022-10-30T15:54:22;22.60;99.90
10306;DHT22;5198;52.382;9.020;2022-10-30T15:58:28;22.40;99.90
10306;DHT22;5198;52.382;9.020;2022-10-30T16:02:34;22.30;99.90
10306;DHT22;5198;52.382;9.020;2022-10-30T16:06:37;22.10;99.90
10306;DHT22;5198;52.382;9.020;2022-10-30T16:10:41;21.90;99.90
10306;DHT22;5198;52.382;9.020;2022-10-30T16:14:44;21.70;99.90
10306;DHT22;5198;52.382;9.020;2022-10-30T16:18:48;21.60;99.90
10306;DHT22;5198;52.382;9.020;2022-10-30T16:22:52;21.40;99.90
10306;DHT22;5198;52.382;9.020;2022-10-30T16:27:01;21.20;99.90
10306;DHT22;5198;52.382;9.020;2022-10-30T16:31:04;21.00;99.90
10306;DHT22;5198;52.382;9.020;2022-10-30T16:35:10;20.90;99.90
10306;DHT22;5198;52.382;9.020;2022-10-30T16:39:13;20.70;99.90
10306;DHT22;5198;52.382;9.020;2022-10-30T16:43:24;20.50;99.90
10306;DHT22;5198;52.382;9.020;2022-10-30T16:47:27;20.40;99.90
10306;DHT22;5198;52.382;9.020;2022-10-30T16:51:31;20.20;99.90
10306;DHT22;5198;52.382;9.020;2022-10-30T16:55:34;20.10;99.90
10306;DHT22;5198;52.382;9.020;2022-10-30T16:59:43;20.00;99.90
10306;DHT22;5198;52.382;9.020;2022-10-30T17:03:46;19.80;99.90
10306;DHT22;5198;52.382;9.020;2022-10-30T17:07:55;19.70;99.90
10306;DHT22;5198;52.382;9.020;2022-10-30T17:12:00;19.60;99.90
10306;DHT22;5198;52.382;9.020;2022-10-30T17:16:12;19.50;99.90
10306;DHT22;5198;52.382;9.020;2022-10-30T17:20:24;19.40;99.90
10306;DHT22;5198;52.382;9.020;2022-10-30T17:24:33;19.30;99.90
10306;DHT22;5198;52.382;9.020;2022-10-30T17:28:37;19.10;99.90
10306;DHT22;5198;52.382;9.020;2022-10-30T17:32:41;19.00;99.90
10306;DHT22;5198;52.382;9.020;2022-10-30T17:36:45;18.90;99.90
10306;DHT22;5198;52.382;9.020;2022-10-30T17:40:49;18.70;99.90
10306;DHT22;5198;52.382;9.020;2022-10-30T17:44:52;18.60;99.90
10306;DHT22;5198;52.382;9.020;2022-10-30T17:48:56;18.50;99.90
10306;DHT22;5198;52.382;9.020;2022-10-30T17:52:59;18.40;99.90
10306;DHT22;5198;52.382;9.020;2022-10-30T17:57:04;18.30;99.90
10306;DHT22;5198;52.382;9.020;2022-10-30T18:01:07;18.20;99.90
10306;DHT22;5198;52.382;9.020;2022-10-30T18:05:12;18.20;99.90
10306;DHT22;5198;52.382;9.020;2022-10-30T18:09:16;18.10;99.90
10306;DHT22;5198;52.382;9.020;2022-10-30T18:13:20;18.10;99.90
10306;DHT22;5198;52.382;9.020;2022-10-30T18:17:23;18.00;99.90
10306;DHT22;5198;52.382;9.020;2022-10-30T18:21:26;18.00;99.90
10306;DHT22;5198;52.382;9.020;2022-10-30T18:25:29;17.90;99.90
10306;DHT22;5198;52.382;9.020;2022-10-30T18:29:34;17.80;99.90
10306;DHT22;5198;52.382;9.020;2022-10-30T18:33:37;17.70;99.90
10306;DHT22;5198;52.382;9.020;2022-10-30T18:37:41;17.70;99.90
10306;DHT22;5198;52.382;9.020;2022-10-30T18:41:44;17.60;99.90
10306;DHT22;5198;52.382;9.020;2022-10-30T18:45:49;17.60;99.90
10306;DHT22;5198;52.382;9.020;2022-10-30T18:49:52;17.50;99.90
10306;DHT22;5198;52.382;9.020;2022-10-30T18:53:57;17.40;99.90
10306;DHT22;5198;52.382;9.020;2022-10-30T18:58:00;17.40;99.90
10306;DHT22;5198;52.382;9.020;2022-10-30T19:02:10;17.30;99.90
10306;DHT22;5198;52.382;9.020;2022-10-30T19:06:17;17.30;99.90
10306;DHT22;5198;52.382;9.020;2022-10-30T19:10:20;17.20;99.90
10306;DHT22;5198;52.382;9.020;2022-10-30T19:14:24;17.10;99.90
10306;DHT22;5198;52.382;9.020;2022-10-30T19:18:28;17.10;99.90
10306;DHT22;5198;52.382;9.020;2022-10-30T19:22:33;17.00;99.90
10306;DHT22;5198;52.382;9.020;2022-10-30T19:26:36;17.00;99.90
10306;DHT22;5198;52.382;9.020;2022-10-30T19:30:39;17.00;99.90
10306;DHT22;5198;52.382;9.020;2022-10-30T19:34:43;16.90;99.90
10306;DHT22;5198;52.382;9.020;2022-10-30T19:38:46;16.90;99.90
10306;DHT22;5198;52.382;9.020;2022-10-30T19:42:49;16.90;99.90
10306;DHT22;5198;52.382;9.020;2022-10-30T19:46:52;16.90;99.90
10306;DHT22;5198;52.382;9.020;2022-10-30T19:50:56;16.90;99.90
10306;DHT22;5198;52.382;9.020;2022-10-30T19:55:00;16.80;99.90
10306;DHT22;5198;52.382;9.020;2022-10-30T19:59:04;16.80;99.90
10306;DHT22;5198;52.382;9.020;2022-10-30T20:03:08;16.70;99.90
10306;DHT22;5198;52.382;9.020;2022-10-30T20:07:12;16.70;99.90
10306;DHT22;5198;52.382;9.020;2022-10-30T20:11:15;16.60;99.90
10306;DHT22;5198;52.382;9.020;2022-10-30T20:15:19;16.50;99.90
10306;DHT22;5198;52.382;9.020;2022-10-30T20:19:25;16.50;99.90
10306;DHT22;5198;52.382;9.020;2022-10-30T20:23:30;16.40;99.90
10306;DHT22;5198;52.382;9.020;2022-10-30T20:27:33;16.30;99.90
10306;DHT22;5198;52.382;9.020;2022-10-30T20:31:36;16.30;99.90
10306;DHT22;5198;52.382;9.020;2022-10-30T20:35:39;16.30;99.90
10306;DHT22;5198;52.382;9.020;2022-10-30T20:39:44;16.30;99.90
10306;DHT22;5198;52.382;9.020;2022-10-30T20:43:46;16.30;99.90
10306;DHT22;5198;52.382;9.020;2022-10-30T20:47:50;16.30;99.90
10306;DHT22;5198;52.382;9.020;2022-10-30T20:51:53;16.30;99.90
10306;DHT22;5198;52.382;9.020;2022-10-30T20:55:58;16.30;99.90
10306;DHT22;5198;52.382;9.020;2022-10-30T21:00:02;16.30;99.90
10306;DHT22;5198;52.382;9.020;2022-10-30T21:08:08;16.20;99.90
10306;DHT22;5198;52.382;9.020;2022-10-30T21:12:12;16.20;99.90
10306;DHT22;5198;52.382;9.020;2022-10-30T21:16:15;16.10;99.90
10306;DHT22;5198;52.382;9.020;2022-10-30T21:20:18;16.10;99.90
10306;DHT22;5198;52.382;9.020;2022-10-30T21:28:26;16.00;99.90
10306;DHT22;5198;52.382;9.020;2022-10-30T21:32:29;16.00;99.90
10306;DHT22;5198;52.382;9.020;2022-10-30T21:36:33;15.90;99.90
10306;DHT22;5198;52.382;9.020;2022-10-30T21:40:36;15.90;99.90
10306;DHT22;5198;52.382;9.020;2022-10-30T21:44:40;15.90;99.90
10306;DHT22;5198;52.382;9.020;2022-10-30T21:48:43;15.80;99.90
10306;DHT22;5198;52.382;9.020;2022-10-30T21:52:49;15.80;99.90
10306;DHT22;5198;52.382;9.020;2022-10-30T21:56:52;15.80;99.90
10306;DHT22;5198;52.382;9.020;2022-10-30T22:00:57;15.80;99.90
10306;DHT22;5198;52.382;9.020;2022-10-30T22:05:00;15.80;99.90
10306;DHT22;5198;52.382;9.020;2022-10-30T22:09:04;15.80;99.90
10306;DHT22;5198;52.382;9.020;2022-10-30T22:13:07;15.80;99.90
10306;DHT22;5198;52.382;9.020;2022-10-30T22:17:11;15.80;99.90
10306;DHT22;5198;52.382;9.020;2022-10-30T22:21:14;15.70;99.90
10306;DHT22;5198;52.382;9.020;2022-10-30T22:25:18;15.70;99.90
10306;DHT22;5198;52.382;9.020;2022-10-30T22:29:22;15.70;99.90
10306;DHT22;5198;52.382;9.020;2022-10-30T22:33:27;15.70;99.90
10306;DHT22;5198;52.382;9.020;2022-10-30T22:37:30;15.60;99.90
10306;DHT22;5198;52.382;9.020;2022-10-30T22:41:33;15.60;99.90
10306;DHT22;5198;52.382;9.020;2022-10-30T22:45:38;15.60;99.90
10306;DHT22;5198;52.382;9.020;2022-10-30T22:53:46;15.50;99.90
10306;DHT22;5198;52.382;9.020;2022-10-30T22:57:51;15.40;99.90
10306;DHT22;5198;52.382;9.020;2022-10-30T23:01:54;15.40;99.90
10306;DHT22;5198;52.382;9.020;2022-10-30T23:05:57;15.40;99.90
10306;DHT22;5198;52.382;9.020;2022-10-30T23:10:01;15.40;99.90
10306;DHT22;5198;52.382;9.020;2022-10-30T23:14:04;15.30;99.90
10306;DHT22;5198;52.382;9.020;2022-10-30T23:18:07;15.30;99.90
10306;DHT22;5198;52.382;9.020;2022-10-30T23:22:10;15.40;99.90
10306;DHT22;5198;52.382;9.020;2022-10-30T23:26:15;15.40;99.90
10306;DHT22;5198;52.382;9.020;2022-10-30T23:30:18;15.30;99.90
10306;DHT22;5198;52.382;9.020;2022-10-30T23:34:21;15.30;99.90
10306;DHT22;5198;52.382;9.020;2022-10-30T23:38:24;15.30;99.90
10306;DHT22;5198;52.382;9.020;2022-10-30T23:42:28;15.30;99.90
10306;DHT22;5198;52.382;9.020;2022-10-30T23:46:31;15.20;99.90
10306;DHT22;5198;52.382;9.020;2022-10-30T23:50:34;15.20;99.90
10306;DHT22;5198;52.382;9.020;2022-10-30T23:54:37;15.20;99.90
10306;DHT22;5198;52.382;9.020;2022-10-30T23:58:42;15.10;99.90
